createdAt,value
2023-05-13T00:02:08.482Z,72.00
2023-05-13T00:04:36.221Z,73.13
2023-05-13T00:07:03.814Z,71.73
2023-05-13T00:09:31.462Z,72.49
2023-05-13T00:11:58.980Z,73.80
2023-05-13T00:14:26.611Z,74.09
2023-05-13T00:16:54.111Z,75.05
2023-05-13T00:19:21.657Z,75.32
2023-05-13T00:21:49.140Z,74.32
2023-05-13T00:24:16.848Z,75.56
2023-05-13T00:26:44.384Z,76.34
2023-05-13T00:29:12.090Z,77.00
2023-05-13T00:31:39.607Z,76.47
2023-05-13T00:34:07.257Z,76.66
2023-05-13T00:36:34.773Z,78.27
2023-05-13T00:39:02.703Z,77.61
2023-05-13T00:41:30.442Z,76.42
2023-05-13T00:43:58.211Z,77.84
2023-05-13T00:46:26.219Z,77.46
2023-05-13T00:48:54.202Z,77.91
2023-05-13T00:51:21.809Z,77.17
2023-05-13T00:53:51.260Z,77.65
2023-05-13T00:56:22.574Z,77.67
2023-05-13T00:58:50.381Z,78.15
2023-05-13T01:01:52.308Z,77.70
2023-05-13T01:04:34.241Z,77.72
2023-05-13T01:07:09.846Z,77.97
2023-05-13T01:10:09.114Z,78.21
2023-05-13T01:12:46.336Z,78.73
2023-05-13T01:15:20.370Z,79.01
2023-05-13T01:18:06.683Z,79.25
2023-05-13T01:20:35.616Z,79.07
2023-05-13T01:23:04.195Z,78.67
2023-05-13T01:25:31.961Z,78.87
2023-05-13T01:28:00.218Z,79.08
2023-05-13T01:30:28.225Z,79.48
2023-05-13T01:32:56.361Z,79.58
2023-05-13T01:35:25.323Z,79.50
2023-05-13T01:37:53.920Z,78.07
2023-05-13T01:40:31.798Z,77.80
2023-05-13T01:43:02.872Z,78.24
2023-05-13T01:45:31.093Z,77.56
2023-05-13T01:47:59.764Z,77.31
2023-05-13T01:50:33.848Z,78.14
2023-05-13T01:53:01.332Z,77.97
2023-05-13T01:55:28.932Z,78.48
2023-05-13T01:57:56.604Z,79.12
2023-05-13T02:00:24.253Z,79.54
2023-05-13T02:02:51.866Z,78.38
2023-05-13T02:05:19.436Z,78.79
2023-05-13T02:07:47.256Z,79.93
2023-05-13T02:10:14.809Z,80.38
2023-05-13T02:12:42.410Z,80.20
2023-05-13T02:15:10.666Z,79.57
2023-05-13T02:17:38.167Z,80.24
2023-05-13T02:20:07.227Z,81.25
2023-05-13T02:22:36.226Z,80.18
2023-05-13T02:25:05.492Z,80.91
2023-05-13T02:27:33.064Z,81.99
2023-05-13T02:30:00.565Z,82.33
2023-05-13T02:32:28.294Z,82.64
2023-05-13T02:34:55.863Z,82.01
2023-05-13T02:37:23.490Z,81.48
2023-05-13T02:39:59.332Z,81.43
2023-05-13T02:42:27.256Z,82.46
2023-05-13T02:44:55.422Z,82.39
2023-05-13T02:47:24.383Z,81.66
2023-05-13T02:49:52.084Z,82.03
2023-05-13T02:52:19.595Z,81.41
2023-05-13T02:54:47.123Z,80.73
2023-05-13T02:57:16.429Z,82.35
2023-05-13T02:59:44.824Z,82.15
2023-05-13T03:02:12.524Z,81.72
2023-05-13T03:04:41.371Z,81.55
2023-05-13T03:07:08.869Z,81.59
2023-05-13T03:09:39.235Z,82.29
2023-05-13T03:12:08.452Z,82.64
2023-05-13T03:14:37.213Z,82.84
2023-05-13T03:17:05.401Z,83.39
2023-05-13T03:19:37.964Z,83.05
2023-05-13T03:22:06.480Z,81.55
2023-05-13T03:24:34.334Z,82.75
2023-05-13T03:27:02.898Z,84.10
2023-05-13T03:29:31.344Z,84.26
2023-05-13T03:31:59.911Z,83.66
2023-05-13T03:34:27.506Z,83.64
2023-05-13T03:36:55.547Z,82.76
2023-05-13T03:39:23.376Z,82.89
2023-05-13T03:41:50.939Z,83.09
2023-05-13T03:44:18.476Z,84.28
2023-05-13T03:46:45.990Z,83.55
2023-05-13T03:49:13.772Z,83.63
2023-05-13T03:51:41.836Z,84.08
2023-05-13T03:54:10.848Z,83.00
2023-05-13T03:56:40.441Z,82.94
2023-05-13T03:59:08.017Z,82.84
2023-05-13T04:01:36.985Z,82.60
2023-05-13T04:04:05.791Z,81.47
2023-05-13T04:06:33.440Z,81.85
2023-05-13T04:09:02.160Z,81.38
2023-05-13T04:11:29.663Z,81.29
2023-05-13T04:13:58.146Z,80.83
2023-05-13T04:16:25.987Z,79.60
2023-05-13T04:18:53.599Z,80.35
2023-05-13T04:21:21.710Z,80.67
2023-05-13T04:23:49.358Z,81.30
2023-05-13T04:26:17.900Z,81.51
2023-05-13T04:28:45.778Z,83.15
2023-05-13T04:31:13.773Z,82.83
2023-05-13T04:33:42.504Z,82.57
2023-05-13T04:36:10.181Z,82.66
2023-05-13T04:38:38.376Z,81.99
2023-05-13T04:41:06.494Z,81.11
2023-05-13T04:43:41.342Z,81.63
2023-05-13T04:46:08.993Z,79.41
2023-05-13T04:48:36.635Z,78.98
2023-05-13T04:51:04.783Z,79.02
2023-05-13T04:53:32.940Z,78.37
2023-05-13T04:56:03.418Z,76.94
2023-05-13T04:58:31.520Z,77.55
2023-05-13T05:00:59.018Z,74.48
2023-05-13T05:03:26.688Z,73.29
2023-05-13T05:05:54.661Z,73.45
2023-05-13T05:08:24.500Z,70.80
2023-05-13T05:10:52.225Z,72.22
2023-05-13T05:13:20.634Z,70.26
2023-05-13T05:15:48.198Z,69.91
2023-05-13T05:18:15.902Z,67.73
2023-05-13T05:20:46.802Z,64.54
2023-05-13T05:23:17.103Z,64.52
2023-05-13T05:25:45.192Z,65.95
2023-05-13T05:28:15.890Z,66.46
2023-05-13T05:30:44.668Z,65.63
2023-05-13T05:33:42.588Z,67.04
2023-05-13T05:36:10.227Z,66.86
2023-05-13T05:38:37.840Z,68.29
2023-05-13T05:41:06.778Z,66.49
2023-05-13T05:43:34.290Z,64.88
2023-05-13T05:46:01.845Z,62.70
2023-05-13T05:48:29.317Z,61.88
2023-05-13T05:50:57.224Z,59.68
2023-05-13T05:53:32.331Z,59.52
2023-05-13T05:56:01.410Z,60.95
2023-05-13T05:58:29.126Z,60.78
2023-05-13T06:00:58.458Z,59.88
2023-05-13T06:03:26.805Z,57.46
2023-05-13T06:05:55.457Z,57.39
2023-05-13T06:08:29.894Z,58.02
2023-05-13T06:11:00.967Z,59.69
2023-05-13T06:13:28.747Z,60.27
2023-05-13T06:15:56.341Z,60.74
2023-05-13T06:18:24.046Z,60.23
2023-05-13T06:20:51.562Z,61.51
2023-05-13T06:23:19.436Z,59.67
2023-05-13T06:25:48.138Z,60.61
2023-05-13T06:28:15.778Z,59.55
2023-05-13T06:30:44.576Z,60.62
2023-05-13T06:33:12.772Z,59.99
2023-05-13T06:35:40.557Z,60.30
2023-05-13T06:38:10.187Z,59.65
2023-05-13T06:40:37.776Z,60.18
2023-05-13T06:43:06.833Z,59.67
2023-05-13T06:45:38.810Z,60.64
2023-05-13T06:48:06.829Z,61.62
2023-05-13T06:50:34.531Z,59.33
2023-05-13T06:53:02.087Z,58.68
2023-05-13T06:55:29.706Z,59.14
2023-05-13T06:57:58.151Z,58.41
2023-05-13T07:00:28.525Z,56.37
2023-05-13T07:02:56.124Z,56.10
2023-05-13T07:05:24.295Z,55.76
2023-05-13T07:07:53.758Z,53.99
2023-05-13T07:10:21.421Z,54.83
2023-05-13T07:12:49.044Z,53.73
2023-05-13T07:15:19.941Z,54.21
2023-05-13T07:17:47.622Z,53.19
2023-05-13T07:20:15.415Z,52.36
2023-05-13T07:22:42.883Z,52.93
2023-05-13T07:25:10.860Z,51.90
2023-05-13T07:27:38.713Z,52.12
2023-05-13T07:30:07.393Z,50.74
2023-05-13T07:32:37.044Z,50.33
2023-05-13T07:35:05.904Z,50.19
2023-05-13T07:37:33.450Z,48.54
2023-05-13T07:40:01.547Z,49.44
2023-05-13T07:42:30.375Z,49.62
2023-05-13T07:44:57.891Z,50.00
2023-05-13T07:47:25.514Z,49.47
2023-05-13T07:49:53.127Z,46.38
2023-05-13T07:52:20.788Z,45.80
2023-05-13T07:54:49.053Z,42.08
2023-05-13T07:57:16.788Z,44.70
2023-05-13T07:59:44.855Z,43.28
2023-05-13T08:02:13.129Z,41.71
2023-05-13T08:04:40.722Z,41.71
2023-05-13T08:07:11.782Z,40.47
2023-05-13T08:09:39.461Z,41.88
2023-05-13T08:12:07.335Z,41.13
2023-05-13T08:14:34.870Z,39.87
2023-05-13T08:17:04.359Z,43.27
2023-05-13T08:19:31.785Z,42.68
2023-05-13T08:22:01.818Z,42.02
2023-05-13T08:24:29.310Z,43.89
2023-05-13T08:26:56.773Z,42.20
2023-05-13T08:29:24.565Z,43.17
2023-05-13T08:31:53.756Z,42.08
2023-05-13T08:34:21.361Z,43.70
2023-05-13T08:36:48.864Z,40.11
2023-05-13T08:39:16.432Z,39.40
2023-05-13T08:41:45.773Z,37.10
2023-05-13T08:44:13.778Z,37.91
2023-05-13T08:46:47.121Z,39.65
2023-05-13T08:49:14.647Z,41.89
2023-05-13T08:51:44.292Z,40.27
2023-05-13T08:54:12.766Z,40.09
2023-05-13T08:56:40.365Z,40.60
2023-05-13T08:59:08.109Z,41.12
2023-05-13T09:01:35.720Z,39.57
2023-05-13T09:04:08.896Z,40.30
2023-05-13T09:06:36.330Z,40.42
2023-05-13T09:09:06.077Z,39.15
2023-05-13T09:11:34.060Z,36.34
2023-05-13T09:14:05.704Z,38.82
2023-05-13T09:16:33.881Z,37.36
2023-05-13T09:19:04.980Z,37.62
2023-05-13T09:21:38.265Z,37.90
2023-05-13T09:24:21.557Z,37.74
2023-05-13T09:26:51.331Z,37.71
2023-05-13T09:29:25.417Z,39.62
2023-05-13T09:31:55.897Z,37.96
2023-05-13T09:34:32.855Z,38.52
2023-05-13T09:37:03.640Z,36.30
2023-05-13T09:39:34.188Z,36.56
2023-05-13T09:42:04.830Z,36.56
2023-05-13T09:44:34.199Z,38.79
2023-05-13T09:47:03.026Z,37.17
2023-05-13T09:49:33.663Z,37.52
2023-05-13T09:52:01.227Z,36.50
2023-05-13T09:54:36.155Z,36.21
2023-05-13T09:57:06.346Z,36.88
2023-05-13T09:59:35.570Z,35.91
2023-05-13T10:02:28.300Z,34.87
2023-05-13T10:04:57.140Z,33.90
2023-05-13T10:07:25.923Z,35.25
2023-05-13T10:09:58.092Z,34.31
2023-05-13T10:12:27.783Z,32.92
2023-05-13T10:14:56.982Z,34.26
2023-05-13T10:17:26.297Z,34.72
2023-05-13T10:19:55.372Z,34.49
2023-05-13T10:22:34.885Z,34.85
2023-05-13T10:25:05.238Z,34.39
2023-05-13T10:27:34.602Z,34.61
2023-05-13T10:30:09.645Z,34.79
2023-05-13T10:32:42.642Z,33.52
2023-05-13T10:35:17.104Z,32.75
2023-05-13T10:38:21.464Z,34.35
2023-05-13T10:41:26.851Z,34.93
2023-05-13T10:43:59.663Z,33.26
2023-05-13T10:46:27.491Z,34.10
2023-05-13T10:49:01.101Z,34.42
2023-05-13T10:51:28.905Z,34.02
2023-05-13T10:53:59.170Z,34.32
2023-05-13T10:56:29.157Z,34.66
2023-05-13T10:59:02.536Z,35.66
2023-05-13T11:01:35.645Z,34.70
2023-05-13T11:04:05.641Z,31.79
2023-05-13T11:06:39.535Z,32.89
2023-05-13T11:09:12.912Z,33.19
2023-05-13T11:11:41.010Z,34.28
2023-05-13T11:14:19.888Z,33.18
2023-05-13T11:17:02.771Z,32.24
2023-05-13T11:19:33.473Z,31.62
2023-05-13T11:22:12.263Z,32.25
2023-05-13T11:24:40.607Z,32.94
2023-05-13T11:27:17.289Z,35.96
2023-05-13T11:29:56.301Z,33.49
2023-05-13T11:32:58.661Z,33.77
2023-05-13T11:35:33.699Z,32.63
2023-05-13T11:38:06.439Z,32.96
2023-05-13T11:40:37.088Z,33.15
2023-05-13T11:43:05.811Z,33.98
2023-05-13T11:45:40.297Z,31.96
2023-05-13T11:48:26.354Z,33.61
2023-05-13T11:50:58.161Z,34.11
2023-05-13T11:53:25.780Z,32.18
2023-05-13T11:55:53.267Z,33.26
2023-05-13T11:58:22.052Z,34.89
2023-05-13T12:00:49.646Z,33.69
2023-05-13T12:03:19.873Z,33.02
2023-05-13T12:05:49.558Z,33.80
2023-05-13T12:08:17.068Z,33.38
2023-05-13T12:10:45.805Z,31.35
2023-05-13T12:13:13.908Z,32.21
2023-05-13T12:15:42.817Z,34.21
2023-05-13T12:18:10.545Z,34.81
2023-05-13T12:20:38.884Z,33.14
2023-05-13T12:23:06.772Z,33.36
2023-05-13T12:25:48.260Z,31.94
2023-05-13T12:28:19.423Z,32.23
2023-05-13T12:30:59.682Z,32.09
2023-05-13T12:33:29.878Z,31.96
2023-05-13T12:36:16.702Z,31.95
2023-05-13T12:39:03.011Z,31.47
2023-05-13T12:41:36.138Z,31.64
2023-05-13T12:44:07.891Z,31.14
2023-05-13T12:46:36.042Z,32.15
2023-05-13T12:49:06.573Z,31.28
2023-05-13T12:51:34.330Z,31.15
2023-05-13T12:54:02.183Z,32.17
2023-05-13T12:56:29.735Z,31.83
2023-05-13T12:59:00.488Z,31.39
2023-05-13T13:01:28.172Z,33.93
2023-05-13T13:03:55.853Z,33.06
2023-05-13T13:06:23.685Z,32.28
2023-05-13T13:08:51.626Z,31.98
2023-05-13T13:11:19.235Z,31.21
2023-05-13T13:13:48.421Z,30.98
2023-05-13T13:16:17.232Z,31.75
2023-05-13T13:18:47.495Z,32.05
2023-05-13T13:21:14.986Z,30.94
2023-05-13T13:23:42.410Z,31.13
2023-05-13T13:26:09.892Z,31.26
2023-05-13T13:28:37.332Z,30.89
2023-05-13T13:31:05.183Z,30.65
2023-05-13T13:33:32.677Z,30.68
2023-05-13T13:36:00.388Z,29.84
2023-05-13T13:38:27.917Z,30.71
2023-05-13T13:40:55.532Z,32.03
2023-05-13T13:43:23.493Z,30.27
2023-05-13T13:45:51.080Z,30.46
2023-05-13T13:48:18.570Z,31.72
2023-05-13T13:50:47.585Z,31.79
2023-05-13T13:53:15.965Z,31.73
2023-05-13T13:55:43.401Z,33.63
2023-05-13T13:58:10.896Z,34.12
2023-05-13T14:00:39.088Z,33.70
2023-05-13T14:03:06.739Z,33.44
2023-05-13T14:05:34.226Z,33.51
2023-05-13T14:08:01.732Z,34.16
2023-05-13T14:10:29.351Z,32.19
2023-05-13T14:12:57.924Z,33.30
2023-05-13T14:15:28.761Z,33.03
2023-05-13T14:17:57.019Z,32.40
2023-05-13T14:20:25.405Z,33.25
2023-05-13T14:22:52.873Z,34.05
2023-05-13T14:25:20.306Z,33.54
2023-05-13T14:27:47.744Z,33.16
2023-05-13T14:30:15.311Z,33.38
2023-05-13T14:32:47.326Z,33.46
2023-05-13T14:35:16.529Z,33.97
2023-05-13T14:37:46.615Z,32.59
2023-05-13T14:40:14.232Z,33.15
2023-05-13T14:42:41.819Z,33.13
2023-05-13T14:45:13.486Z,34.10
2023-05-13T14:47:42.849Z,33.08
2023-05-13T14:50:12.324Z,32.84
2023-05-13T14:52:39.811Z,32.82
2023-05-13T14:55:07.698Z,32.55
2023-05-13T14:57:35.445Z,31.84
2023-05-13T15:00:04.211Z,32.71
2023-05-13T15:02:31.957Z,32.22
2023-05-13T15:04:59.641Z,32.99
2023-05-13T15:07:27.140Z,32.40
2023-05-13T15:09:55.612Z,32.60
2023-05-13T15:12:23.175Z,31.92
2023-05-13T15:14:54.570Z,32.83
2023-05-13T15:17:22.595Z,31.92
2023-05-13T15:19:50.376Z,31.26
2023-05-13T15:22:18.665Z,31.40
2023-05-13T15:24:48.557Z,31.50
2023-05-13T15:27:17.187Z,31.75
2023-05-13T15:29:44.587Z,32.02
2023-05-13T15:32:12.138Z,32.85
2023-05-13T15:34:42.812Z,32.86
2023-05-13T15:37:10.398Z,33.07
2023-05-13T15:39:37.952Z,33.38
2023-05-13T15:42:05.759Z,33.35
2023-05-13T15:44:33.556Z,34.04
2023-05-13T15:47:02.050Z,35.18
2023-05-13T15:49:30.181Z,33.65
2023-05-13T15:51:57.858Z,33.87
2023-05-13T15:54:25.359Z,33.27
2023-05-13T15:56:53.021Z,34.39
2023-05-13T15:59:20.677Z,35.46
2023-05-13T16:01:48.209Z,35.90
2023-05-13T16:04:16.289Z,36.69
2023-05-13T16:06:44.517Z,37.45
2023-05-13T16:09:12.010Z,38.29
2023-05-13T16:11:39.481Z,37.91
2023-05-13T16:14:08.772Z,37.42
2023-05-13T16:16:36.374Z,38.01
2023-05-13T16:19:04.104Z,37.63
2023-05-13T16:21:32.340Z,37.05
2023-05-13T16:23:59.843Z,37.21
2023-05-13T16:26:27.837Z,38.33
2023-05-13T16:28:55.664Z,38.50
2023-05-13T16:31:23.159Z,37.52
2023-05-13T16:33:51.656Z,38.31
2023-05-13T16:36:19.165Z,39.91
2023-05-13T16:38:47.427Z,40.60
2023-05-13T16:41:15.141Z,41.25
2023-05-13T16:43:44.039Z,42.01
2023-05-13T16:46:11.662Z,42.24
2023-05-13T16:48:39.294Z,42.46
2023-05-13T16:51:06.740Z,43.29
2023-05-13T16:53:36.564Z,43.43
2023-05-13T16:56:04.184Z,43.96
2023-05-13T16:58:33.418Z,44.80
2023-05-13T17:01:09.069Z,45.93
2023-05-13T17:03:39.577Z,47.05
2023-05-13T17:06:10.489Z,47.64
2023-05-13T17:08:39.080Z,48.45
2023-05-13T17:11:07.350Z,48.87
2023-05-13T17:13:34.817Z,49.51
2023-05-13T17:16:02.311Z,49.53
2023-05-13T17:18:30.065Z,50.09
2023-05-13T17:20:57.648Z,50.01
2023-05-13T17:23:26.160Z,50.09
2023-05-13T17:25:53.681Z,50.69
2023-05-13T17:28:21.229Z,51.38
2023-05-13T17:30:50.225Z,51.71
2023-05-13T17:33:21.781Z,51.94
2023-05-13T17:35:51.136Z,51.63
2023-05-13T17:38:18.996Z,51.51
2023-05-13T17:40:46.614Z,50.80
2023-05-13T17:43:14.071Z,49.97
2023-05-13T17:45:42.667Z,49.86
2023-05-13T17:48:10.236Z,50.16
2023-05-13T17:50:38.364Z,49.93
2023-05-13T17:53:07.952Z,50.67
2023-05-13T17:55:35.928Z,51.86
2023-05-13T17:58:04.535Z,52.95
2023-05-13T18:00:41.652Z,53.01
2023-05-13T18:03:14.524Z,53.55
2023-05-13T18:05:43.066Z,53.44
2023-05-13T18:08:12.102Z,53.73
2023-05-13T18:10:39.625Z,53.42
2023-05-13T18:13:09.822Z,53.74
2023-05-13T18:15:48.800Z,53.37
2023-05-13T18:18:19.647Z,53.97
2023-05-13T18:20:47.636Z,53.96
2023-05-13T18:23:16.493Z,55.39
2023-05-13T18:25:55.087Z,54.89
2023-05-13T18:28:23.786Z,55.09
2023-05-13T18:30:52.192Z,54.75
2023-05-13T18:33:23.825Z,54.51
2023-05-13T18:35:54.163Z,54.87
2023-05-13T18:38:22.943Z,55.45
2023-05-13T18:40:51.498Z,54.95
2023-05-13T18:43:19.379Z,55.13
2023-05-13T18:45:50.018Z,55.03
2023-05-13T18:48:21.412Z,55.97
2023-05-13T18:50:49.327Z,55.06
2023-05-13T18:53:17.855Z,55.43
2023-05-13T18:55:46.552Z,55.54
2023-05-13T18:58:20.056Z,55.46
2023-05-13T19:00:49.401Z,56.31
2023-05-13T19:03:19.070Z,56.51
2023-05-13T19:05:47.248Z,56.41
2023-05-13T19:08:15.679Z,56.44
2023-05-13T19:10:44.225Z,56.97
2023-05-13T19:13:13.972Z,56.97
2023-05-13T19:15:44.669Z,56.81
2023-05-13T19:18:12.243Z,56.06
2023-05-13T19:20:42.061Z,56.91
2023-05-13T19:23:09.982Z,56.68
2023-05-13T19:25:44.849Z,56.85
2023-05-13T19:28:13.991Z,56.90
2023-05-13T19:30:44.008Z,57.30
2023-05-13T19:33:11.736Z,57.21
2023-05-13T19:35:44.641Z,57.32
2023-05-13T19:38:14.705Z,57.41
2023-05-13T19:40:47.288Z,57.92
2023-05-13T19:43:15.340Z,57.75
2023-05-13T19:45:43.319Z,57.59
2023-05-13T19:48:10.843Z,57.08
2023-05-13T19:50:39.815Z,56.99
2023-05-13T19:53:11.417Z,57.31
2023-05-13T19:55:39.293Z,57.48
2023-05-13T19:58:07.368Z,58.28
2023-05-13T20:00:34.937Z,58.17
2023-05-13T20:03:02.474Z,57.85
2023-05-13T20:05:30.041Z,57.89
2023-05-13T20:07:57.513Z,57.92
2023-05-13T20:10:25.200Z,57.92
2023-05-13T20:12:54.052Z,58.26
2023-05-13T20:15:22.166Z,57.34
2023-05-13T20:17:49.897Z,57.58
2023-05-13T20:20:17.650Z,58.44
2023-05-13T20:22:45.141Z,58.55
2023-05-13T20:25:15.527Z,58.29
2023-05-13T20:27:43.149Z,59.31
2023-05-13T20:30:14.191Z,59.45
2023-05-13T20:32:43.248Z,59.40
2023-05-13T20:35:10.956Z,59.49
2023-05-13T20:37:38.461Z,59.74
2023-05-13T20:40:07.451Z,59.71
2023-05-13T20:42:34.973Z,59.47
2023-05-13T20:45:02.644Z,58.88
2023-05-13T20:47:35.424Z,58.87
2023-05-13T20:50:03.393Z,59.23
2023-05-13T20:52:32.155Z,59.37
2023-05-13T20:54:59.974Z,59.73
2023-05-13T20:57:27.560Z,60.19
2023-05-13T20:59:55.912Z,59.36
2023-05-13T21:02:23.469Z,58.79
2023-05-13T21:05:03.066Z,58.36
2023-05-13T21:07:34.505Z,58.11
2023-05-13T21:10:04.246Z,59.03
2023-05-13T21:12:34.733Z,59.07
2023-05-13T21:15:03.693Z,58.97
2023-05-13T21:17:37.950Z,58.11
2023-05-13T21:20:26.605Z,58.81
2023-05-13T21:22:58.244Z,58.00
2023-05-13T21:25:27.430Z,58.36
2023-05-13T21:27:54.991Z,57.96
2023-05-13T21:30:23.345Z,57.46
2023-05-13T21:32:51.070Z,57.98
2023-05-13T21:35:19.412Z,57.13
2023-05-13T21:37:47.544Z,56.87
2023-05-13T21:40:16.136Z,57.32
2023-05-13T21:42:45.363Z,56.16
2023-05-13T21:45:15.175Z,55.70
2023-05-13T21:47:42.739Z,53.96
2023-05-13T21:50:11.559Z,53.92
2023-05-13T21:52:42.190Z,52.79
2023-05-13T21:55:10.266Z,52.85
2023-05-13T21:57:37.755Z,53.52
2023-05-13T22:00:10.662Z,53.03
2023-05-13T22:02:44.018Z,53.01
2023-05-13T22:05:12.094Z,52.19
2023-05-13T22:07:39.710Z,52.46
2023-05-13T22:10:08.249Z,52.54
2023-05-13T22:12:36.101Z,52.64
2023-05-13T22:15:03.699Z,52.10
2023-05-13T22:17:31.197Z,51.53
2023-05-13T22:19:58.819Z,51.24
2023-05-13T22:22:26.415Z,50.83
2023-05-13T22:24:53.763Z,51.72
2023-05-13T22:27:21.414Z,51.58
2023-05-13T22:29:48.934Z,51.42
2023-05-13T22:32:16.589Z,51.75
2023-05-13T22:34:44.274Z,51.31
2023-05-13T22:37:11.731Z,50.55
2023-05-13T22:39:39.153Z,51.31
2023-05-13T22:42:07.021Z,51.51
2023-05-13T22:44:35.050Z,51.39
2023-05-13T22:47:02.506Z,51.40
2023-05-13T22:49:29.924Z,51.49
2023-05-13T22:51:57.466Z,51.14
2023-05-13T22:54:24.949Z,51.27
2023-05-13T22:56:52.733Z,51.91
2023-05-13T22:59:20.211Z,51.18
2023-05-13T23:01:47.734Z,51.48
2023-05-13T23:04:15.222Z,51.52
2023-05-13T23:06:42.732Z,52.42
2023-05-13T23:09:10.379Z,51.81
2023-05-13T23:11:37.873Z,52.14
2023-05-13T23:14:05.469Z,51.96
2023-05-13T23:16:32.979Z,51.76
2023-05-13T23:19:00.536Z,51.76
2023-05-13T23:21:28.277Z,51.94
2023-05-13T23:23:55.742Z,52.02
2023-05-13T23:26:24.850Z,52.07
2023-05-13T23:28:52.370Z,52.04
2023-05-13T23:31:19.888Z,52.72
2023-05-13T23:33:47.457Z,51.94
2023-05-13T23:36:17.117Z,52.91
2023-05-13T23:38:44.601Z,52.64
2023-05-13T23:41:11.995Z,53.49
2023-05-13T23:43:39.464Z,53.13
2023-05-13T23:46:07.019Z,53.37
2023-05-13T23:48:34.429Z,52.88
2023-05-13T23:51:02.088Z,52.18
2023-05-13T23:53:29.559Z,51.73
2023-05-13T23:55:57.510Z,52.08
2023-05-13T23:58:25.109Z,52.29
